Terminal Aerodrome Forecast
Issued by NWS Mt. Holly, NJ

Home | Current Version | Previous Version | Text Only | Print | Product List | Glossary On
Versions: 1 2 3 4 5 6 7 8 9 10 11 12 13 14 15 16 17 18 19 20 21 22 23
000
FTAK31 PANC 250540
TAFABE
TAF
PABE 250540Z 2506/2606 VRB03KT P6SM SCT050 BKN070
     FM251200 VRB03KT P6SM VCFG SCT025 BKN050
      TEMPO 2512/2516 6SM -RA BR BKN025
     FM251800 10006KT P6SM SCT025 BKN080
     FM260300 12006KT P6SM -RA SCT025 BKN045=

USA.gov is the U.S. government's official web portal to all federal, state and local government web resources and services.